Reecon Whale — 9HA2885 — position and weather

sailwx.info

Track history (hours):
 
Tides and Currents Weather Stations Pressure Air Temp Water Temp Dewpoint Dewpoint Depression Visibility Wind Speed Wind Dir Waves Ship Positions

Reecon Whale

Last reported at 2015-Aug-28 10:24 UTC. Time now 2015-Aug-29 07:25 UTC.
Position N 37°19' E 007°19'.

Length 145 m; draft 8.6 m.

Type: Ship. MMSI: 256579000.

Date/timePositionNaut miles runAvg speedWind from/ knotsBaromVisibWave heightAir tempDewpointWater temp
2015-Aug-28 10:24N 37°19' E 007°19'10010.7
2015-Aug-28 01:05N 37°24' E 009°24'711.0
2015-Aug-28 00:25N 37°26' E 009°33'1010.9
2015-Aug-27 23:29N 37°27' E 009°46'9 9.9
2015-Aug-27 22:33N 37°23' E 009°56'8 3.3
2015-Aug-27 20:16N 37°16' E 009°52'0 0.0
2015-Aug-27 19:31N 37°16' E 009°52'0 0.0
2015-Aug-27 16:28N 37°16' E 009°52'0 0.0
2015-Aug-27 15:28N 37°16' E 009°52'0 0.0
2015-Aug-27 13:28N 37°16' E 009°52'0 0.0
2015-Aug-26 16:04N 37°16' E 009°52'3 0.2
2015-Aug-26 03:10N 37°17' E 009°56'0 0.1
2015-Aug-26 02:26N 37°17' E 009°56'0 0.0
2015-Aug-25 23:32N 37°17' E 009°56'0 0.0
2015-Aug-25 15:26N 37°17' E 009°56'0 0.0
2015-Aug-25 03:29N 37°18' E 009°56'0 0.1
2015-Aug-25 02:32N 37°17' E 009°56'0 0.0
2015-Aug-24 19:32N 37°18' E 009°56'3 2.9
2015-Aug-24 18:33N 37°20' E 009°57'1110.7
2015-Aug-24 17:33N 37°31' E 009°59'9 9.2
2015-Aug-24 16:32N 37°39' E 010°05'1010.2
2015-Aug-24 15:33N 37°38' E 010°18'1110.5
2015-Aug-24 14:32N 37°36' E 010°30'1010.6
2015-Aug-24 13:33N 37°33' E 010°43'1110.9
2015-Aug-24 12:33N 37°30' E 010°56'1111.2
2015-Aug-24 11:33N 37°27' E 011°10'1111.3
2015-Aug-24 10:33N 37°22' E 011°23'1211.6
2015-Aug-24 09:33N 37°17' E 011°36'1312.8
2015-Aug-24 08:33N 37°12' E 011°50'1212.2
2015-Aug-24 07:33N 37°06' E 012°04'1111.3
2015-Aug-24 06:33N 37°03' E 012°18'1111.3
2015-Aug-24 05:33N 36°59' E 012°31'1111.2
2015-Aug-24 04:33N 36°55' E 012°44'1111.3
2015-Aug-24 03:33N 36°50' E 012°57'1111.1
2015-Aug-24 02:33N 36°45' E 013°09'1111.0
2015-Aug-24 01:33N 36°42' E 013°22'1110.9
2015-Aug-24 00:33N 36°38' E 013°35'1110.9
2015-Aug-23 23:33N 36°33' E 013°48'1111.2
2015-Aug-23 22:33N 36°29' E 014°00'1111.2
2015-Aug-23 21:33N 36°24' E 014°13'1111.2
2015-Aug-23 20:33N 36°20' E 014°26'1111.2
2015-Aug-23 19:33N 36°20' E 014°40'1111.0
2015-Aug-23 18:33N 36°20' E 014°54'1110.8
2015-Aug-23 17:33N 36°20' E 015°07'1210.9
2015-Aug-23 16:28N 36°20' E 015°22'403 9.8
2015-Aug-21 23:33N 37°20' E 023°39'1110.6
2015-Aug-21 22:33N 37°31' E 023°41'1110.5
2015-Aug-21 21:33N 37°41' E 023°41'1110.8
2015-Aug-21 20:33N 37°51' E 023°36'6 6.1
2015-Aug-21 19:33N 37°57' E 023°36'0 0.0
2015-Aug-21 18:33N 37°57' E 023°36'0 0.0
2015-Aug-21 17:33N 37°57' E 023°36'0 0.0
2015-Aug-21 16:33N 37°57' E 023°36'0 0.0
2015-Aug-21 15:33N 37°57' E 023°36'0 0.0
2015-Aug-21 14:33N 37°57' E 023°36'0 0.0
2015-Aug-21 13:33N 37°57' E 023°36'0 0.0
2015-Aug-21 12:33N 37°57' E 023°36'0 0.0
2015-Aug-21 11:33N 37°57' E 023°36'0 0.0
2015-Aug-21 10:33N 37°57' E 023°36'0 0.0
2015-Aug-21 09:33N 37°57' E 023°36'0 0.0
2015-Aug-21 08:33N 37°57' E 023°36'0 0.0
2015-Aug-21 07:33N 37°57' E 023°36'0 0.0
2015-Aug-21 06:33N 37°57' E 023°36'0 0.0
2015-Aug-21 05:33N 37°57' E 023°36'0 0.0
2015-Aug-21 04:33N 37°57' E 023°36'0 0.0
2015-Aug-21 03:33N 37°57' E 023°36'0 0.0
2015-Aug-21 02:33N 37°57' E 023°36'0 0.0
2015-Aug-21 01:33N 37°57' E 023°36'0 0.0
2015-Aug-21 00:33N 37°57' E 023°36'0 0.0
2015-Aug-20 23:33N 37°57' E 023°36'0 0.0
2015-Aug-20 22:33N 37°57' E 023°36'2 2.2
2015-Aug-20 21:34N 37°55' E 023°37'4 4.3
2015-Aug-20 20:33N 37°52' E 023°33'0 0.3
2015-Aug-20 19:33N 37°52' E 023°33'0 0.0
2015-Aug-20 18:33N 37°52' E 023°33'0 0.0
2015-Aug-20 17:33N 37°52' E 023°33'0 0.0
2015-Aug-20 16:33N 37°52' E 023°33'0 0.0
2015-Aug-20 15:33N 37°52' E 023°33'0 0.0
2015-Aug-20 14:33N 37°52' E 023°33'0 0.0
2015-Aug-20 13:33N 37°52' E 023°33'0 0.1
2015-Aug-20 12:33N 37°52' E 023°33'0 0.0
2015-Aug-20 11:33N 37°52' E 023°33'0 0.0
2015-Aug-20 10:33N 37°52' E 023°33'0 0.0
2015-Aug-20 09:33N 37°52' E 023°33'0 0.0
2015-Aug-20 08:30N 37°52' E 023°33'0 0.0
2015-Aug-20 07:33N 37°52' E 023°33'0 0.1
2015-Aug-20 06:33N 37°52' E 023°33'0 0.0
2015-Aug-20 05:33N 37°52' E 023°33'0 0.0
2015-Aug-20 04:33N 37°52' E 023°33'0 0.0
2015-Aug-20 03:33N 37°52' E 023°33'0 0.0
2015-Aug-20 02:33N 37°52' E 023°33'0 0.0
2015-Aug-20 01:33N 37°52' E 023°33'0 0.0
2015-Aug-20 00:33N 37°52' E 023°33'0 0.0
2015-Aug-19 23:33N 37°52' E 023°33'0 0.1
2015-Aug-19 22:33N 37°52' E 023°33'0 0.0
2015-Aug-19 21:33N 37°52' E 023°33'0 0.1
2015-Aug-19 20:33N 37°52' E 023°33'0 0.0
2015-Aug-19 19:33N 37°52' E 023°33'0 0.0
2015-Aug-19 18:33N 37°52' E 023°33'0 0.0
2015-Aug-19 17:33N 37°52' E 023°33'0 0.0
2015-Aug-19 16:33N 37°52' E 023°33'0 0.0
2015-Aug-19 15:33N 37°52' E 023°33'0 0.0
2015-Aug-19 14:33N 37°52' E 023°33'0 0.0
2015-Aug-19 13:33N 37°52' E 023°33'0 0.1
2015-Aug-19 12:33N 37°52' E 023°33'0 0.0
2015-Aug-19 11:33N 37°52' E 023°33'0 0.0
2015-Aug-19 10:33N 37°52' E 023°33'0 0.0
2015-Aug-19 09:33N 37°52' E 023°33'0 0.0
2015-Aug-19 08:33N 37°52' E 023°33'0 0.0
2015-Aug-19 07:33N 37°52' E 023°33'0 0.1
2015-Aug-19 06:33N 37°52' E 023°33'0 0.0
2015-Aug-19 05:33N 37°52' E 023°33'0 0.0
2015-Aug-19 04:33N 37°52' E 023°33'0 0.0
2015-Aug-19 03:33N 37°52' E 023°33'0 0.1
2015-Aug-19 02:33N 37°52' E 023°33'0 0.0
2015-Aug-19 01:33N 37°52' E 023°33'0 0.0
2015-Aug-19 00:33N 37°52' E 023°33'0 0.0
2015-Aug-18 23:33N 37°52' E 023°33'0 0.0
2015-Aug-18 22:33N 37°52' E 023°33'0 0.0
2015-Aug-18 21:33N 37°52' E 023°33'0 0.0
2015-Aug-18 20:33N 37°52' E 023°33'0 0.0
2015-Aug-18 19:33N 37°52' E 023°33'0 0.0
2015-Aug-18 18:33N 37°52' E 023°33'0 0.0
2015-Aug-18 17:33N 37°52' E 023°33'0 0.0
2015-Aug-18 16:33N 37°52' E 023°33'0 0.0
2015-Aug-18 15:33N 37°52' E 023°33'0 0.0
2015-Aug-18 14:33N 37°52' E 023°33'0 0.0
2015-Aug-18 13:33N 37°52' E 023°33'2 1.8
2015-Aug-18 12:34N 37°52' E 023°35'7 7.3
2015-Aug-18 11:34N 37°47' E 023°42'1010.0
2015-Aug-18 10:34N 37°37' E 023°45'  
Track history (hours):
 
Tides and Currents Weather Stations Pressure Air Temp Water Temp Dewpoint Dewpoint Depression Visibility Wind Speed Wind Dir Waves Ship Positions

Reecon Whale

Last reported at 2015-Aug-28 10:24 UTC. Time now 2015-Aug-29 07:25 UTC.
Position N 37°19' E 007°19'.

Length 145 m; draft 8.6 m.

Type: Ship. MMSI: 256579000.

Date/timePositionNaut miles runAvg speedWind from/ knotsBaromVisibWave heightAir tempDewpointWater temp
2015-Aug-28 10:24N 37°19' E 007°19'10010.7
2015-Aug-28 01:05N 37°24' E 009°24'711.0
2015-Aug-28 00:25N 37°26' E 009°33'1010.9
2015-Aug-27 23:29N 37°27' E 009°46'9 9.9
2015-Aug-27 22:33N 37°23' E 009°56'8 3.3
2015-Aug-27 20:16N 37°16' E 009°52'0 0.0
2015-Aug-27 19:31N 37°16' E 009°52'0 0.0
2015-Aug-27 16:28N 37°16' E 009°52'0 0.0
2015-Aug-27 15:28N 37°16' E 009°52'0 0.0
2015-Aug-27 13:28N 37°16' E 009°52'0 0.0
2015-Aug-26 16:04N 37°16' E 009°52'3 0.2
2015-Aug-26 03:10N 37°17' E 009°56'0 0.1
2015-Aug-26 02:26N 37°17' E 009°56'0 0.0
2015-Aug-25 23:32N 37°17' E 009°56'0 0.0
2015-Aug-25 15:26N 37°17' E 009°56'0 0.0
2015-Aug-25 03:29N 37°18' E 009°56'0 0.1
2015-Aug-25 02:32N 37°17' E 009°56'0 0.0
2015-Aug-24 19:32N 37°18' E 009°56'3 2.9
2015-Aug-24 18:33N 37°20' E 009°57'1110.7
2015-Aug-24 17:33N 37°31' E 009°59'9 9.2
2015-Aug-24 16:32N 37°39' E 010°05'1010.2
2015-Aug-24 15:33N 37°38' E 010°18'1110.5
2015-Aug-24 14:32N 37°36' E 010°30'1010.6
2015-Aug-24 13:33N 37°33' E 010°43'1110.9
2015-Aug-24 12:33N 37°30' E 010°56'1111.2
2015-Aug-24 11:33N 37°27' E 011°10'1111.3
2015-Aug-24 10:33N 37°22' E 011°23'1211.6
2015-Aug-24 09:33N 37°17' E 011°36'1312.8
2015-Aug-24 08:33N 37°12' E 011°50'1212.2
2015-Aug-24 07:33N 37°06' E 012°04'1111.3
2015-Aug-24 06:33N 37°03' E 012°18'1111.3
2015-Aug-24 05:33N 36°59' E 012°31'1111.2
2015-Aug-24 04:33N 36°55' E 012°44'1111.3
2015-Aug-24 03:33N 36°50' E 012°57'1111.1
2015-Aug-24 02:33N 36°45' E 013°09'1111.0
2015-Aug-24 01:33N 36°42' E 013°22'1110.9
2015-Aug-24 00:33N 36°38' E 013°35'1110.9
2015-Aug-23 23:33N 36°33' E 013°48'1111.2
2015-Aug-23 22:33N 36°29' E 014°00'1111.2
2015-Aug-23 21:33N 36°24' E 014°13'1111.2
2015-Aug-23 20:33N 36°20' E 014°26'1111.2
2015-Aug-23 19:33N 36°20' E 014°40'1111.0
2015-Aug-23 18:33N 36°20' E 014°54'1110.8
2015-Aug-23 17:33N 36°20' E 015°07'1210.9
2015-Aug-23 16:28N 36°20' E 015°22'403 9.8
2015-Aug-21 23:33N 37°20' E 023°39'1110.6
2015-Aug-21 22:33N 37°31' E 023°41'1110.5
2015-Aug-21 21:33N 37°41' E 023°41'1110.8
2015-Aug-21 20:33N 37°51' E 023°36'6 6.1
2015-Aug-21 19:33N 37°57' E 023°36'0 0.0
2015-Aug-21 18:33N 37°57' E 023°36'0 0.0
2015-Aug-21 17:33N 37°57' E 023°36'0 0.0
2015-Aug-21 16:33N 37°57' E 023°36'0 0.0
2015-Aug-21 15:33N 37°57' E 023°36'0 0.0
2015-Aug-21 14:33N 37°57' E 023°36'0 0.0
2015-Aug-21 13:33N 37°57' E 023°36'0 0.0
2015-Aug-21 12:33N 37°57' E 023°36'0 0.0
2015-Aug-21 11:33N 37°57' E 023°36'0 0.0
2015-Aug-21 10:33N 37°57' E 023°36'0 0.0
2015-Aug-21 09:33N 37°57' E 023°36'0 0.0
2015-Aug-21 08:33N 37°57' E 023°36'0 0.0
2015-Aug-21 07:33N 37°57' E 023°36'0 0.0
2015-Aug-21 06:33N 37°57' E 023°36'0 0.0
2015-Aug-21 05:33N 37°57' E 023°36'0 0.0
2015-Aug-21 04:33N 37°57' E 023°36'0 0.0
2015-Aug-21 03:33N 37°57' E 023°36'0 0.0
2015-Aug-21 02:33N 37°57' E 023°36'0 0.0
2015-Aug-21 01:33N 37°57' E 023°36'0 0.0
2015-Aug-21 00:33N 37°57' E 023°36'0 0.0
2015-Aug-20 23:33N 37°57' E 023°36'0 0.0
2015-Aug-20 22:33N 37°57' E 023°36'2 2.2
2015-Aug-20 21:34N 37°55' E 023°37'4 4.3
2015-Aug-20 20:33N 37°52' E 023°33'0 0.3
2015-Aug-20 19:33N 37°52' E 023°33'0 0.0
2015-Aug-20 18:33N 37°52' E 023°33'0 0.0
2015-Aug-20 17:33N 37°52' E 023°33'0 0.0
2015-Aug-20 16:33N 37°52' E 023°33'0 0.0
2015-Aug-20 15:33N 37°52' E 023°33'0 0.0
2015-Aug-20 14:33N 37°52' E 023°33'0 0.0
2015-Aug-20 13:33N 37°52' E 023°33'0 0.1
2015-Aug-20 12:33N 37°52' E 023°33'0 0.0
2015-Aug-20 11:33N 37°52' E 023°33'0 0.0
2015-Aug-20 10:33N 37°52' E 023°33'0 0.0
2015-Aug-20 09:33N 37°52' E 023°33'0 0.0
2015-Aug-20 08:30N 37°52' E 023°33'0 0.0
2015-Aug-20 07:33N 37°52' E 023°33'0 0.1
2015-Aug-20 06:33N 37°52' E 023°33'0 0.0
2015-Aug-20 05:33N 37°52' E 023°33'0 0.0
2015-Aug-20 04:33N 37°52' E 023°33'0 0.0
2015-Aug-20 03:33N 37°52' E 023°33'0 0.0
2015-Aug-20 02:33N 37°52' E 023°33'0 0.0
2015-Aug-20 01:33N 37°52' E 023°33'0 0.0
2015-Aug-20 00:33N 37°52' E 023°33'0 0.0
2015-Aug-19 23:33N 37°52' E 023°33'0 0.1
2015-Aug-19 22:33N 37°52' E 023°33'0 0.0
2015-Aug-19 21:33N 37°52' E 023°33'0 0.1
2015-Aug-19 20:33N 37°52' E 023°33'0 0.0
2015-Aug-19 19:33N 37°52' E 023°33'0 0.0
2015-Aug-19 18:33N 37°52' E 023°33'0 0.0
2015-Aug-19 17:33N 37°52' E 023°33'0 0.0
2015-Aug-19 16:33N 37°52' E 023°33'0 0.0
2015-Aug-19 15:33N 37°52' E 023°33'0 0.0
2015-Aug-19 14:33N 37°52' E 023°33'0 0.0
2015-Aug-19 13:33N 37°52' E 023°33'0 0.1
2015-Aug-19 12:33N 37°52' E 023°33'0 0.0
2015-Aug-19 11:33N 37°52' E 023°33'0 0.0
2015-Aug-19 10:33N 37°52' E 023°33'0 0.0
2015-Aug-19 09:33N 37°52' E 023°33'0 0.0
2015-Aug-19 08:33N 37°52' E 023°33'0 0.0
2015-Aug-19 07:33N 37°52' E 023°33'0 0.1
2015-Aug-19 06:33N 37°52' E 023°33'0 0.0
2015-Aug-19 05:33N 37°52' E 023°33'0 0.0
2015-Aug-19 04:33N 37°52' E 023°33'0 0.0
2015-Aug-19 03:33N 37°52' E 023°33'0 0.1
2015-Aug-19 02:33N 37°52' E 023°33'0 0.0
2015-Aug-19 01:33N 37°52' E 023°33'0 0.0
2015-Aug-19 00:33N 37°52' E 023°33'0 0.0
2015-Aug-18 23:33N 37°52' E 023°33'0 0.0
2015-Aug-18 22:33N 37°52' E 023°33'0 0.0
2015-Aug-18 21:33N 37°52' E 023°33'0 0.0
2015-Aug-18 20:33N 37°52' E 023°33'0 0.0
2015-Aug-18 19:33N 37°52' E 023°33'0 0.0
2015-Aug-18 18:33N 37°52' E 023°33'0 0.0
2015-Aug-18 17:33N 37°52' E 023°33'0 0.0
2015-Aug-18 16:33N 37°52' E 023°33'0 0.0
2015-Aug-18 15:33N 37°52' E 023°33'0 0.0
2015-Aug-18 14:33N 37°52' E 023°33'0 0.0
2015-Aug-18 13:33N 37°52' E 023°33'2 1.8
2015-Aug-18 12:34N 37°52' E 023°35'7 7.3
2015-Aug-18 11:34N 37°47' E 023°42'1010.0
2015-Aug-18 10:34N 37°37' E 023°45'  

Dump ship's entire track history